sensor_id;sensor_type;location;lat;lon;timestamp;P1;durP1;ratioP1;P2;durP2;ratioP2
58553;SDS011;48119;53.218;6.576;2022-07-29T00:02:12;2.40;;;1.00;;
58553;SDS011;48119;53.218;6.576;2022-07-29T00:04:54;1.52;;;0.90;;
58553;SDS011;48119;53.218;6.576;2022-07-29T00:07:26;2.22;;;0.98;;
58553;SDS011;48119;53.218;6.576;2022-07-29T00:09:58;3.08;;;1.05;;
58553;SDS011;48119;53.218;6.576;2022-07-29T00:12:24;2.40;;;0.95;;
58553;SDS011;48119;53.218;6.576;2022-07-29T00:14:59;1.65;;;0.85;;
58553;SDS011;48119;53.218;6.576;2022-07-29T00:17:25;4.57;;;0.90;;
58553;SDS011;48119;53.218;6.576;2022-07-29T00:19:51;1.65;;;0.90;;
58553;SDS011;48119;53.218;6.576;2022-07-29T00:22:17;1.55;;;0.80;;
58553;SDS011;48119;53.218;6.576;2022-07-29T00:24:44;3.28;;;1.10;;
58553;SDS011;48119;53.218;6.576;2022-07-29T00:27:09;2.33;;;1.08;;
58553;SDS011;48119;53.218;6.576;2022-07-29T00:29:35;4.20;;;1.35;;
58553;SDS011;48119;53.218;6.576;2022-07-29T00:32:01;3.28;;;1.45;;
58553;SDS011;48119;53.218;6.576;2022-07-29T00:34:27;1.85;;;0.95;;
58553;SDS011;48119;53.218;6.576;2022-07-29T00:37:12;2.88;;;1.33;;
58553;SDS011;48119;53.218;6.576;2022-07-29T00:39:38;2.17;;;1.00;;
58553;SDS011;48119;53.218;6.576;2022-07-29T00:42:04;5.32;;;1.38;;
58553;SDS011;48119;53.218;6.576;2022-07-29T00:44:30;3.13;;;1.52;;
58553;SDS011;48119;53.218;6.576;2022-07-29T00:47:00;2.28;;;0.90;;
58553;SDS011;48119;53.218;6.576;2022-07-29T00:49:26;2.15;;;1.08;;
58553;SDS011;48119;53.218;6.576;2022-07-29T00:51:52;2.80;;;1.02;;
58553;SDS011;48119;53.218;6.576;2022-07-29T00:54:18;2.72;;;1.48;;
58553;SDS011;48119;53.218;6.576;2022-07-29T00:56:44;1.80;;;1.20;;
58553;SDS011;48119;53.218;6.576;2022-07-29T00:59:09;2.47;;;0.98;;
58553;SDS011;48119;53.218;6.576;2022-07-29T01:01:35;3.53;;;1.40;;
58553;SDS011;48119;53.218;6.576;2022-07-29T01:04:01;2.45;;;1.17;;
58553;SDS011;48119;53.218;6.576;2022-07-29T01:06:27;4.43;;;0.95;;
58553;SDS011;48119;53.218;6.576;2022-07-29T01:08:52;2.92;;;1.10;;
58553;SDS011;48119;53.218;6.576;2022-07-29T01:11:19;2.13;;;1.08;;
58553;SDS011;48119;53.218;6.576;2022-07-29T01:13:45;2.65;;;1.23;;
58553;SDS011;48119;53.218;6.576;2022-07-29T01:16:18;2.17;;;1.10;;
58553;SDS011;48119;53.218;6.576;2022-07-29T01:18:49;2.67;;;1.00;;
58553;SDS011;48119;53.218;6.576;2022-07-29T01:21:46;3.88;;;1.27;;
58553;SDS011;48119;53.218;6.576;2022-07-29T01:24:11;4.50;;;1.23;;
58553;SDS011;48119;53.218;6.576;2022-07-29T01:27:03;1.77;;;1.00;;
58553;SDS011;48119;53.218;6.576;2022-07-29T01:29:44;2.95;;;1.17;;
58553;SDS011;48119;53.218;6.576;2022-07-29T01:32:19;2.33;;;1.00;;
58553;SDS011;48119;53.218;6.576;2022-07-29T01:37:57;3.05;;;1.20;;
58553;SDS011;48119;53.218;6.576;2022-07-29T01:40:43;4.47;;;1.10;;
58553;SDS011;48119;53.218;6.576;2022-07-29T01:43:14;1.88;;;1.15;;
58553;SDS011;48119;53.218;6.576;2022-07-29T01:45:50;2.25;;;1.20;;
58553;SDS011;48119;53.218;6.576;2022-07-29T01:53:37;4.37;;;1.20;;
58553;SDS011;48119;53.218;6.576;2022-07-29T01:56:26;3.95;;;1.00;;
58553;SDS011;48119;53.218;6.576;2022-07-29T01:58:56;3.47;;;1.40;;
58553;SDS011;48119;53.218;6.576;2022-07-29T02:01:23;3.15;;;1.20;;
58553;SDS011;48119;53.218;6.576;2022-07-29T02:03:50;3.80;;;1.15;;
58553;SDS011;48119;53.218;6.576;2022-07-29T02:06:21;4.13;;;1.17;;
58553;SDS011;48119;53.218;6.576;2022-07-29T02:08:48;8.68;;;1.38;;
58553;SDS011;48119;53.218;6.576;2022-07-29T02:11:17;2.83;;;1.10;;
58553;SDS011;48119;53.218;6.576;2022-07-29T02:13:43;2.42;;;1.25;;
58553;SDS011;48119;53.218;6.576;2022-07-29T02:16:16;4.20;;;0.88;;
58553;SDS011;48119;53.218;6.576;2022-07-29T02:18:46;4.88;;;1.10;;
58553;SDS011;48119;53.218;6.576;2022-07-29T02:21:19;2.22;;;1.13;;
58553;SDS011;48119;53.218;6.576;2022-07-29T02:23:49;2.13;;;1.13;;
58553;SDS011;48119;53.218;6.576;2022-07-29T02:26:18;2.35;;;1.35;;
58553;SDS011;48119;53.218;6.576;2022-07-29T02:28:45;3.08;;;1.13;;
58553;SDS011;48119;53.218;6.576;2022-07-29T02:31:13;4.22;;;1.30;;
58553;SDS011;48119;53.218;6.576;2022-07-29T02:33:44;3.10;;;1.20;;
58553;SDS011;48119;53.218;6.576;2022-07-29T02:36:10;3.10;;;1.15;;
58553;SDS011;48119;53.218;6.576;2022-07-29T02:38:40;2.80;;;1.02;;
58553;SDS011;48119;53.218;6.576;2022-07-29T02:41:18;3.50;;;1.10;;
58553;SDS011;48119;53.218;6.576;2022-07-29T02:43:56;1.98;;;0.88;;
58553;SDS011;48119;53.218;6.576;2022-07-29T02:46:33;2.85;;;1.23;;
58553;SDS011;48119;53.218;6.576;2022-07-29T02:49:04;2.28;;;1.00;;
58553;SDS011;48119;53.218;6.576;2022-07-29T02:51:41;3.33;;;1.10;;
58553;SDS011;48119;53.218;6.576;2022-07-29T02:54:34;3.50;;;1.20;;
58553;SDS011;48119;53.218;6.576;2022-07-29T03:00:03;2.28;;;1.27;;
58553;SDS011;48119;53.218;6.576;2022-07-29T03:02:37;6.50;;;1.55;;
58553;SDS011;48119;53.218;6.576;2022-07-29T03:05:08;2.75;;;0.85;;
58553;SDS011;48119;53.218;6.576;2022-07-29T03:07:38;3.03;;;1.30;;
58553;SDS011;48119;53.218;6.576;2022-07-29T03:10:08;2.50;;;0.95;;
58553;SDS011;48119;53.218;6.576;2022-07-29T03:12:40;2.17;;;1.20;;
58553;SDS011;48119;53.218;6.576;2022-07-29T03:15:07;2.97;;;1.08;;
58553;SDS011;48119;53.218;6.576;2022-07-29T03:17:34;5.38;;;1.52;;
58553;SDS011;48119;53.218;6.576;2022-07-29T03:20:01;4.40;;;1.38;;
58553;SDS011;48119;53.218;6.576;2022-07-29T03:22:27;2.75;;;1.33;;
58553;SDS011;48119;53.218;6.576;2022-07-29T03:24:53;3.10;;;1.35;;
58553;SDS011;48119;53.218;6.576;2022-07-29T03:27:19;3.05;;;1.45;;
58553;SDS011;48119;53.218;6.576;2022-07-29T03:29:45;3.53;;;1.30;;
58553;SDS011;48119;53.218;6.576;2022-07-29T03:32:11;3.33;;;1.20;;
58553;SDS011;48119;53.218;6.576;2022-07-29T03:34:37;3.25;;;1.35;;
58553;SDS011;48119;53.218;6.576;2022-07-29T03:37:08;4.47;;;1.13;;
58553;SDS011;48119;53.218;6.576;2022-07-29T03:39:36;4.78;;;1.00;;
58553;SDS011;48119;53.218;6.576;2022-07-29T03:42:06;2.67;;;1.15;;
58553;SDS011;48119;53.218;6.576;2022-07-29T03:44:35;2.70;;;1.10;;
58553;SDS011;48119;53.218;6.576;2022-07-29T03:47:02;2.60;;;1.30;;
58553;SDS011;48119;53.218;6.576;2022-07-29T03:49:31;6.18;;;1.70;;
58553;SDS011;48119;53.218;6.576;2022-07-29T03:51:59;5.78;;;1.30;;
58553;SDS011;48119;53.218;6.576;2022-07-29T03:54:25;5.47;;;2.13;;
58553;SDS011;48119;53.218;6.576;2022-07-29T03:56:52;3.22;;;1.35;;
58553;SDS011;48119;53.218;6.576;2022-07-29T03:59:20;2.97;;;1.20;;
58553;SDS011;48119;53.218;6.576;2022-07-29T04:01:47;2.85;;;1.35;;
58553;SDS011;48119;53.218;6.576;2022-07-29T04:04:14;3.20;;;1.40;;
58553;SDS011;48119;53.218;6.576;2022-07-29T04:06:40;4.90;;;1.45;;
58553;SDS011;48119;53.218;6.576;2022-07-29T04:09:09;2.38;;;1.00;;
58553;SDS011;48119;53.218;6.576;2022-07-29T04:11:39;4.35;;;1.33;;
58553;SDS011;48119;53.218;6.576;2022-07-29T04:14:06;2.53;;;1.13;;
58553;SDS011;48119;53.218;6.576;2022-07-29T04:16:32;6.70;;;1.38;;
58553;SDS011;48119;53.218;6.576;2022-07-29T04:18:58;6.13;;;1.20;;
58553;SDS011;48119;53.218;6.576;2022-07-29T04:21:24;2.35;;;1.23;;
58553;SDS011;48119;53.218;6.576;2022-07-29T04:23:50;7.93;;;1.38;;
58553;SDS011;48119;53.218;6.576;2022-07-29T04:26:16;3.85;;;1.27;;
58553;SDS011;48119;53.218;6.576;2022-07-29T04:28:42;4.47;;;1.40;;
58553;SDS011;48119;53.218;6.576;2022-07-29T04:31:09;4.07;;;1.02;;
58553;SDS011;48119;53.218;6.576;2022-07-29T04:33:35;4.63;;;1.27;;
58553;SDS011;48119;53.218;6.576;2022-07-29T04:36:04;4.72;;;1.30;;
58553;SDS011;48119;53.218;6.576;2022-07-29T04:38:31;4.43;;;1.58;;
58553;SDS011;48119;53.218;6.576;2022-07-29T04:40:57;5.65;;;1.52;;
58553;SDS011;48119;53.218;6.576;2022-07-29T04:43:23;3.10;;;1.02;;
58553;SDS011;48119;53.218;6.576;2022-07-29T04:45:48;2.72;;;1.17;;
58553;SDS011;48119;53.218;6.576;2022-07-29T04:48:14;2.85;;;0.98;;
58553;SDS011;48119;53.218;6.576;2022-07-29T04:50:40;1.73;;;1.17;;
58553;SDS011;48119;53.218;6.576;2022-07-29T04:53:07;3.22;;;1.35;;
58553;SDS011;48119;53.218;6.576;2022-07-29T04:55:41;3.67;;;1.50;;
58553;SDS011;48119;53.218;6.576;2022-07-29T04:58:07;5.55;;;1.45;;
58553;SDS011;48119;53.218;6.576;2022-07-29T05:00:33;7.72;;;1.33;;
58553;SDS011;48119;53.218;6.576;2022-07-29T05:02:59;3.08;;;1.13;;
58553;SDS011;48119;53.218;6.576;2022-07-29T05:05:26;3.78;;;1.40;;
58553;SDS011;48119;53.218;6.576;2022-07-29T05:07:51;2.25;;;1.42;;
58553;SDS011;48119;53.218;6.576;2022-07-29T05:10:17;5.50;;;1.30;;
58553;SDS011;48119;53.218;6.576;2022-07-29T05:12:43;3.08;;;1.20;;
58553;SDS011;48119;53.218;6.576;2022-07-29T05:15:10;2.75;;;1.48;;
58553;SDS011;48119;53.218;6.576;2022-07-29T05:17:36;2.70;;;1.80;;
58553;SDS011;48119;53.218;6.576;2022-07-29T05:20:02;3.47;;;1.23;;
58553;SDS011;48119;53.218;6.576;2022-07-29T05:22:30;3.83;;;1.45;;
58553;SDS011;48119;53.218;6.576;2022-07-29T05:24:56;3.08;;;1.33;;
58553;SDS011;48119;53.218;6.576;2022-07-29T05:27:23;2.30;;;1.17;;
58553;SDS011;48119;53.218;6.576;2022-07-29T05:29:49;8.32;;;1.42;;
58553;SDS011;48119;53.218;6.576;2022-07-29T05:32:15;5.20;;;1.90;;
58553;SDS011;48119;53.218;6.576;2022-07-29T05:34:40;4.38;;;1.40;;
58553;SDS011;48119;53.218;6.576;2022-07-29T05:37:06;7.20;;;1.90;;
58553;SDS011;48119;53.218;6.576;2022-07-29T05:39:32;5.15;;;1.77;;
58553;SDS011;48119;53.218;6.576;2022-07-29T05:41:58;5.97;;;1.30;;
58553;SDS011;48119;53.218;6.576;2022-07-29T05:44:28;2.97;;;1.38;;
58553;SDS011;48119;53.218;6.576;2022-07-29T05:46:53;4.18;;;1.40;;
58553;SDS011;48119;53.218;6.576;2022-07-29T05:49:19;4.25;;;1.38;;
58553;SDS011;48119;53.218;6.576;2022-07-29T05:51:45;3.35;;;1.40;;
58553;SDS011;48119;53.218;6.576;2022-07-29T05:54:11;3.90;;;1.40;;
58553;SDS011;48119;53.218;6.576;2022-07-29T05:56:36;3.58;;;1.77;;
58553;SDS011;48119;53.218;6.576;2022-07-29T05:59:02;5.25;;;1.50;;
58553;SDS011;48119;53.218;6.576;2022-07-29T06:01:28;3.72;;;1.58;;
58553;SDS011;48119;53.218;6.576;2022-07-29T06:03:54;3.65;;;1.48;;
58553;SDS011;48119;53.218;6.576;2022-07-29T06:06:20;4.00;;;1.35;;
58553;SDS011;48119;53.218;6.576;2022-07-29T06:08:46;4.90;;;1.42;;
58553;SDS011;48119;53.218;6.576;2022-07-29T06:11:12;4.10;;;1.55;;
58553;SDS011;48119;53.218;6.576;2022-07-29T06:13:37;3.33;;;1.52;;
58553;SDS011;48119;53.218;6.576;2022-07-29T06:16:03;5.22;;;1.95;;
58553;SDS011;48119;53.218;6.576;2022-07-29T06:18:29;5.68;;;1.48;;
58553;SDS011;48119;53.218;6.576;2022-07-29T06:20:55;2.47;;;1.20;;
58553;SDS011;48119;53.218;6.576;2022-07-29T06:23:21;5.57;;;1.60;;
58553;SDS011;48119;53.218;6.576;2022-07-29T06:25:47;3.85;;;1.17;;
58553;SDS011;48119;53.218;6.576;2022-07-29T06:28:13;2.92;;;1.20;;
58553;SDS011;48119;53.218;6.576;2022-07-29T06:30:45;4.35;;;1.27;;
58553;SDS011;48119;53.218;6.576;2022-07-29T06:33:17;6.30;;;1.60;;
58553;SDS011;48119;53.218;6.576;2022-07-29T06:35:43;4.22;;;1.50;;
58553;SDS011;48119;53.218;6.576;2022-07-29T06:38:10;3.58;;;1.40;;
58553;SDS011;48119;53.218;6.576;2022-07-29T06:40:40;4.22;;;1.70;;
58553;SDS011;48119;53.218;6.576;2022-07-29T06:43:25;6.40;;;1.50;;
58553;SDS011;48119;53.218;6.576;2022-07-29T06:45:52;3.58;;;1.40;;
58553;SDS011;48119;53.218;6.576;2022-07-29T06:48:18;6.53;;;1.67;;
58553;SDS011;48119;53.218;6.576;2022-07-29T06:50:44;5.85;;;1.65;;
58553;SDS011;48119;53.218;6.576;2022-07-29T06:53:09;5.10;;;1.63;;
58553;SDS011;48119;53.218;6.576;2022-07-29T06:55:35;3.75;;;1.33;;
58553;SDS011;48119;53.218;6.576;2022-07-29T06:58:02;2.78;;;1.30;;
58553;SDS011;48119;53.218;6.576;2022-07-29T07:00:28;4.28;;;1.40;;
58553;SDS011;48119;53.218;6.576;2022-07-29T07:02:55;8.10;;;2.38;;
58553;SDS011;48119;53.218;6.576;2022-07-29T07:05:20;4.07;;;1.30;;
58553;SDS011;48119;53.218;6.576;2022-07-29T07:07:46;6.07;;;1.70;;
58553;SDS011;48119;53.218;6.576;2022-07-29T07:10:13;4.47;;;1.90;;
58553;SDS011;48119;53.218;6.576;2022-07-29T07:12:39;3.25;;;1.55;;
58553;SDS011;48119;53.218;6.576;2022-07-29T07:15:07;5.05;;;1.75;;
58553;SDS011;48119;53.218;6.576;2022-07-29T07:17:34;6.10;;;1.88;;
58553;SDS011;48119;53.218;6.576;2022-07-29T07:20:00;3.90;;;1.58;;
58553;SDS011;48119;53.218;6.576;2022-07-29T07:22:25;4.68;;;1.88;;
58553;SDS011;48119;53.218;6.576;2022-07-29T07:24:51;3.97;;;1.45;;
58553;SDS011;48119;53.218;6.576;2022-07-29T07:27:18;4.22;;;1.80;;
58553;SDS011;48119;53.218;6.576;2022-07-29T07:29:44;5.57;;;2.40;;
58553;SDS011;48119;53.218;6.576;2022-07-29T07:32:09;6.93;;;1.88;;
58553;SDS011;48119;53.218;6.576;2022-07-29T07:34:35;3.17;;;1.42;;
58553;SDS011;48119;53.218;6.576;2022-07-29T07:37:02;7.03;;;1.60;;
58553;SDS011;48119;53.218;6.576;2022-07-29T07:39:28;4.40;;;1.73;;
58553;SDS011;48119;53.218;6.576;2022-07-29T07:41:54;2.72;;;1.52;;
58553;SDS011;48119;53.218;6.576;2022-07-29T07:44:21;4.80;;;1.80;;
58553;SDS011;48119;53.218;6.576;2022-07-29T07:46:47;3.70;;;1.40;;
58553;SDS011;48119;53.218;6.576;2022-07-29T07:49:13;4.38;;;1.70;;
58553;SDS011;48119;53.218;6.576;2022-07-29T07:51:39;3.88;;;1.60;;
58553;SDS011;48119;53.218;6.576;2022-07-29T07:54:05;5.78;;;1.77;;
58553;SDS011;48119;53.218;6.576;2022-07-29T07:56:37;5.88;;;1.63;;
58553;SDS011;48119;53.218;6.576;2022-07-29T07:59:03;6.43;;;1.70;;
58553;SDS011;48119;53.218;6.576;2022-07-29T08:01:29;3.60;;;1.73;;
58553;SDS011;48119;53.218;6.576;2022-07-29T08:03:58;6.40;;;1.70;;
58553;SDS011;48119;53.218;6.576;2022-07-29T08:06:25;6.90;;;2.15;;
58553;SDS011;48119;53.218;6.576;2022-07-29T08:08:54;3.80;;;2.25;;
58553;SDS011;48119;53.218;6.576;2022-07-29T08:11:19;3.05;;;1.48;;
58553;SDS011;48119;53.218;6.576;2022-07-29T08:13:46;6.00;;;1.90;;
58553;SDS011;48119;53.218;6.576;2022-07-29T08:16:12;4.93;;;1.85;;
58553;SDS011;48119;53.218;6.576;2022-07-29T08:18:40;8.00;;;2.45;;
58553;SDS011;48119;53.218;6.576;2022-07-29T08:21:07;3.63;;;1.48;;
58553;SDS011;48119;53.218;6.576;2022-07-29T08:23:33;4.78;;;1.80;;
58553;SDS011;48119;53.218;6.576;2022-07-29T08:26:11;4.53;;;1.98;;
58553;SDS011;48119;53.218;6.576;2022-07-29T08:28:39;3.70;;;1.52;;
58553;SDS011;48119;53.218;6.576;2022-07-29T08:31:06;4.07;;;1.60;;
58553;SDS011;48119;53.218;6.576;2022-07-29T08:33:35;4.07;;;1.77;;
58553;SDS011;48119;53.218;6.576;2022-07-29T08:36:01;5.07;;;1.77;;
58553;SDS011;48119;53.218;6.576;2022-07-29T08:38:29;5.47;;;1.60;;
58553;SDS011;48119;53.218;6.576;2022-07-29T08:40:54;5.60;;;1.80;;
58553;SDS011;48119;53.218;6.576;2022-07-29T08:43:20;6.25;;;2.08;;
58553;SDS011;48119;53.218;6.576;2022-07-29T08:45:52;6.15;;;1.92;;
58553;SDS011;48119;53.218;6.576;2022-07-29T08:48:19;5.75;;;2.22;;
58553;SDS011;48119;53.218;6.576;2022-07-29T08:50:47;5.82;;;2.53;;
58553;SDS011;48119;53.218;6.576;2022-07-29T08:53:23;7.60;;;2.53;;
58553;SDS011;48119;53.218;6.576;2022-07-29T08:55:51;20.10;;;2.25;;
58553;SDS011;48119;53.218;6.576;2022-07-29T08:58:18;5.18;;;1.63;;
58553;SDS011;48119;53.218;6.576;2022-07-29T09:00:52;9.07;;;2.20;;
58553;SDS011;48119;53.218;6.576;2022-07-29T09:03:20;9.48;;;1.85;;
58553;SDS011;48119;53.218;6.576;2022-07-29T09:05:48;5.10;;;2.38;;
58553;SDS011;48119;53.218;6.576;2022-07-29T09:08:14;6.50;;;2.55;;
58553;SDS011;48119;53.218;6.576;2022-07-29T09:10:43;5.90;;;2.30;;
58553;SDS011;48119;53.218;6.576;2022-07-29T09:13:09;7.68;;;2.03;;
58553;SDS011;48119;53.218;6.576;2022-07-29T09:15:35;4.82;;;2.10;;
58553;SDS011;48119;53.218;6.576;2022-07-29T09:18:01;8.63;;;2.42;;
58553;SDS011;48119;53.218;6.576;2022-07-29T09:20:27;6.82;;;2.35;;
58553;SDS011;48119;53.218;6.576;2022-07-29T09:23:12;6.40;;;2.58;;
58553;SDS011;48119;53.218;6.576;2022-07-29T09:25:39;5.65;;;1.98;;
58553;SDS011;48119;53.218;6.576;2022-07-29T09:28:07;4.63;;;2.20;;
58553;SDS011;48119;53.218;6.576;2022-07-29T09:30:51;3.45;;;2.22;;
58553;SDS011;48119;53.218;6.576;2022-07-29T09:33:18;3.83;;;2.15;;
58553;SDS011;48119;53.218;6.576;2022-07-29T09:35:46;6.30;;;2.55;;
58553;SDS011;48119;53.218;6.576;2022-07-29T09:38:33;4.93;;;1.88;;
58553;SDS011;48119;53.218;6.576;2022-07-29T09:41:03;4.25;;;1.92;;
58553;SDS011;48119;53.218;6.576;2022-07-29T09:43:33;3.65;;;1.85;;
58553;SDS011;48119;53.218;6.576;2022-07-29T09:46:13;9.35;;;2.22;;
58553;SDS011;48119;53.218;6.576;2022-07-29T09:51:46;3.80;;;2.05;;
58553;SDS011;48119;53.218;6.576;2022-07-29T09:54:25;5.22;;;2.72;;
58553;SDS011;48119;53.218;6.576;2022-07-29T09:56:55;5.75;;;2.28;;
58553;SDS011;48119;53.218;6.576;2022-07-29T09:59:30;8.68;;;2.35;;
58553;SDS011;48119;53.218;6.576;2022-07-29T10:02:12;6.47;;;2.25;;
58553;SDS011;48119;53.218;6.576;2022-07-29T10:04:50;6.30;;;2.70;;
58553;SDS011;48119;53.218;6.576;2022-07-29T10:07:19;6.70;;;2.45;;
58553;SDS011;48119;53.218;6.576;2022-07-29T10:09:56;10.77;;;2.42;;
58553;SDS011;48119;53.218;6.576;2022-07-29T10:12:23;5.78;;;2.10;;
58553;SDS011;48119;53.218;6.576;2022-07-29T10:14:51;5.82;;;2.55;;
58553;SDS011;48119;53.218;6.576;2022-07-29T10:17:23;5.03;;;1.90;;
58553;SDS011;48119;53.218;6.576;2022-07-29T10:19:49;5.22;;;2.00;;
58553;SDS011;48119;53.218;6.576;2022-07-29T10:22:19;5.05;;;2.15;;
58553;SDS011;48119;53.218;6.576;2022-07-29T10:24:49;6.05;;;2.60;;
58553;SDS011;48119;53.218;6.576;2022-07-29T10:27:22;5.53;;;2.20;;
58553;SDS011;48119;53.218;6.576;2022-07-29T10:29:49;5.65;;;2.20;;
58553;SDS011;48119;53.218;6.576;2022-07-29T10:32:25;4.70;;;2.15;;
58553;SDS011;48119;53.218;6.576;2022-07-29T10:43:32;7.30;;;2.45;;
58553;SDS011;48119;53.218;6.576;2022-07-29T10:46:02;5.15;;;2.67;;
58553;SDS011;48119;53.218;6.576;2022-07-29T10:48:30;4.72;;;2.58;;
58553;SDS011;48119;53.218;6.576;2022-07-29T10:56:31;6.15;;;2.08;;
58553;SDS011;48119;53.218;6.576;2022-07-29T11:04:16;6.95;;;2.08;;
58553;SDS011;48119;53.218;6.576;2022-07-29T11:09:35;5.40;;;2.10;;
58553;SDS011;48119;53.218;6.576;2022-07-29T11:12:00;5.72;;;2.83;;
58553;SDS011;48119;53.218;6.576;2022-07-29T11:31:52;4.22;;;2.20;;
58553;SDS011;48119;53.218;6.576;2022-07-29T11:34:32;3.97;;;1.95;;
58553;SDS011;48119;53.218;6.576;2022-07-29T11:39:34;6.40;;;2.45;;
58553;SDS011;48119;53.218;6.576;2022-07-29T11:47:21;6.43;;;3.05;;
58553;SDS011;48119;53.218;6.576;2022-07-29T11:49:48;7.53;;;2.85;;
58553;SDS011;48119;53.218;6.576;2022-07-29T11:52:16;6.68;;;2.85;;
58553;SDS011;48119;53.218;6.576;2022-07-29T11:54:43;6.78;;;2.45;;
58553;SDS011;48119;53.218;6.576;2022-07-29T11:57:10;8.57;;;2.30;;
58553;SDS011;48119;53.218;6.576;2022-07-29T11:59:44;7.15;;;3.13;;
58553;SDS011;48119;53.218;6.576;2022-07-29T12:02:21;5.78;;;2.35;;
58553;SDS011;48119;53.218;6.576;2022-07-29T12:07:32;3.72;;;2.47;;
58553;SDS011;48119;53.218;6.576;2022-07-29T12:10:05;7.63;;;2.50;;
58553;SDS011;48119;53.218;6.576;2022-07-29T12:12:33;4.53;;;2.25;;
58553;SDS011;48119;53.218;6.576;2022-07-29T12:15:16;6.28;;;2.42;;
58553;SDS011;48119;53.218;6.576;2022-07-29T12:17:45;5.13;;;2.70;;
58553;SDS011;48119;53.218;6.576;2022-07-29T12:20:22;9.20;;;3.28;;
58553;SDS011;48119;53.218;6.576;2022-07-29T12:22:57;10.70;;;4.05;;
58553;SDS011;48119;53.218;6.576;2022-07-29T12:25:34;9.23;;;2.60;;
58553;SDS011;48119;53.218;6.576;2022-07-29T12:28:04;7.43;;;2.47;;
58553;SDS011;48119;53.218;6.576;2022-07-29T12:30:35;5.43;;;2.47;;
58553;SDS011;48119;53.218;6.576;2022-07-29T12:33:12;9.43;;;2.47;;
58553;SDS011;48119;53.218;6.576;2022-07-29T12:35:52;5.68;;;2.30;;
58553;SDS011;48119;53.218;6.576;2022-07-29T12:38:25;3.63;;;1.95;;
58553;SDS011;48119;53.218;6.576;2022-07-29T12:40:52;3.78;;;2.03;;
58553;SDS011;48119;53.218;6.576;2022-07-29T12:43:19;8.90;;;2.35;;
58553;SDS011;48119;53.218;6.576;2022-07-29T12:45:50;4.35;;;2.03;;
58553;SDS011;48119;53.218;6.576;2022-07-29T12:48:41;4.40;;;2.30;;
58553;SDS011;48119;53.218;6.576;2022-07-29T12:51:06;4.35;;;2.20;;
58553;SDS011;48119;53.218;6.576;2022-07-29T12:53:36;4.50;;;2.95;;
58553;SDS011;48119;53.218;6.576;2022-07-29T12:56:02;4.32;;;2.08;;
58553;SDS011;48119;53.218;6.576;2022-07-29T12:58:37;9.98;;;2.33;;
58553;SDS011;48119;53.218;6.576;2022-07-29T13:01:14;4.63;;;1.85;;
58553;SDS011;48119;53.218;6.576;2022-07-29T13:11:44;7.13;;;2.40;;
58553;SDS011;48119;53.218;6.576;2022-07-29T13:17:05;5.40;;;2.10;;
58553;SDS011;48119;53.218;6.576;2022-07-29T13:19:51;6.32;;;2.22;;
58553;SDS011;48119;53.218;6.576;2022-07-29T13:22:31;4.65;;;2.35;;
58553;SDS011;48119;53.218;6.576;2022-07-29T13:24:59;4.25;;;2.17;;
58553;SDS011;48119;53.218;6.576;2022-07-29T13:27:31;6.95;;;2.33;;
58553;SDS011;48119;53.218;6.576;2022-07-29T13:29:59;8.30;;;2.40;;
58553;SDS011;48119;53.218;6.576;2022-07-29T13:32:28;5.55;;;1.85;;
58553;SDS011;48119;53.218;6.576;2022-07-29T13:34:59;5.45;;;2.30;;
58553;SDS011;48119;53.218;6.576;2022-07-29T13:37:27;6.10;;;2.33;;
58553;SDS011;48119;53.218;6.576;2022-07-29T13:39:55;4.65;;;2.17;;
58553;SDS011;48119;53.218;6.576;2022-07-29T13:42:24;3.17;;;1.77;;
58553;SDS011;48119;53.218;6.576;2022-07-29T13:44:52;4.15;;;2.10;;
58553;SDS011;48119;53.218;6.576;2022-07-29T13:47:19;8.45;;;2.33;;
58553;SDS011;48119;53.218;6.576;2022-07-29T13:49:45;5.75;;;2.42;;
58553;SDS011;48119;53.218;6.576;2022-07-29T13:52:11;5.15;;;2.05;;
58553;SDS011;48119;53.218;6.576;2022-07-29T13:54:37;7.15;;;2.33;;
58553;SDS011;48119;53.218;6.576;2022-07-29T13:57:05;7.20;;;2.17;;
58553;SDS011;48119;53.218;6.576;2022-07-29T13:59:32;8.05;;;2.50;;
58553;SDS011;48119;53.218;6.576;2022-07-29T14:01:58;4.35;;;2.30;;
58553;SDS011;48119;53.218;6.576;2022-07-29T14:04:24;8.80;;;2.70;;
58553;SDS011;48119;53.218;6.576;2022-07-29T14:06:50;3.22;;;1.88;;
58553;SDS011;48119;53.218;6.576;2022-07-29T14:09:17;4.57;;;2.30;;
58553;SDS011;48119;53.218;6.576;2022-07-29T14:11:48;3.60;;;1.77;;
58553;SDS011;48119;53.218;6.576;2022-07-29T14:14:16;7.25;;;2.55;;
58553;SDS011;48119;53.218;6.576;2022-07-29T14:16:43;9.32;;;2.40;;
58553;SDS011;48119;53.218;6.576;2022-07-29T14:19:09;4.72;;;2.20;;
58553;SDS011;48119;53.218;6.576;2022-07-29T14:21:36;6.15;;;2.20;;
58553;SDS011;48119;53.218;6.576;2022-07-29T14:24:04;9.73;;;2.53;;
58553;SDS011;48119;53.218;6.576;2022-07-29T14:26:31;3.10;;;2.10;;
58553;SDS011;48119;53.218;6.576;2022-07-29T14:28:58;7.63;;;2.22;;
58553;SDS011;48119;53.218;6.576;2022-07-29T14:31:36;5.72;;;2.35;;
58553;SDS011;48119;53.218;6.576;2022-07-29T14:34:09;8.55;;;2.83;;
58553;SDS011;48119;53.218;6.576;2022-07-29T14:36:37;3.85;;;1.85;;
58553;SDS011;48119;53.218;6.576;2022-07-29T14:39:03;6.22;;;1.98;;
58553;SDS011;48119;53.218;6.576;2022-07-29T14:41:35;5.82;;;2.55;;
58553;SDS011;48119;53.218;6.576;2022-07-29T14:44:08;9.35;;;2.42;;
58553;SDS011;48119;53.218;6.576;2022-07-29T14:46:43;5.05;;;2.45;;
58553;SDS011;48119;53.218;6.576;2022-07-29T14:49:10;7.57;;;2.50;;
58553;SDS011;48119;53.218;6.576;2022-07-29T14:51:38;8.35;;;2.53;;
58553;SDS011;48119;53.218;6.576;2022-07-29T14:54:04;6.45;;;2.40;;
58553;SDS011;48119;53.218;6.576;2022-07-29T14:56:30;9.02;;;2.22;;
58553;SDS011;48119;53.218;6.576;2022-07-29T14:58:56;4.50;;;2.15;;
58553;SDS011;48119;53.218;6.576;2022-07-29T15:01:24;5.28;;;1.92;;
58553;SDS011;48119;53.218;6.576;2022-07-29T15:03:54;3.92;;;2.03;;
58553;SDS011;48119;53.218;6.576;2022-07-29T15:06:20;4.03;;;2.05;;
58553;SDS011;48119;53.218;6.576;2022-07-29T15:08:52;5.80;;;2.80;;
58553;SDS011;48119;53.218;6.576;2022-07-29T15:11:24;8.07;;;2.75;;
58553;SDS011;48119;53.218;6.576;2022-07-29T15:13:52;9.60;;;2.05;;
58553;SDS011;48119;53.218;6.576;2022-07-29T15:16:23;6.82;;;2.00;;
58553;SDS011;48119;53.218;6.576;2022-07-29T15:18:55;11.82;;;3.17;;
58553;SDS011;48119;53.218;6.576;2022-07-29T15:21:24;6.43;;;1.90;;
58553;SDS011;48119;53.218;6.576;2022-07-29T15:23:53;6.70;;;2.25;;
58553;SDS011;48119;53.218;6.576;2022-07-29T15:26:19;8.55;;;2.13;;
58553;SDS011;48119;53.218;6.576;2022-07-29T15:28:46;11.10;;;2.20;;
58553;SDS011;48119;53.218;6.576;2022-07-29T15:31:12;6.03;;;1.85;;
58553;SDS011;48119;53.218;6.576;2022-07-29T15:33:38;7.75;;;2.78;;
58553;SDS011;48119;53.218;6.576;2022-07-29T15:36:05;4.43;;;2.22;;
58553;SDS011;48119;53.218;6.576;2022-07-29T15:38:30;5.28;;;2.20;;
58553;SDS011;48119;53.218;6.576;2022-07-29T15:40:58;8.80;;;2.13;;
58553;SDS011;48119;53.218;6.576;2022-07-29T15:43:24;3.08;;;2.33;;
58553;SDS011;48119;53.218;6.576;2022-07-29T15:45:53;11.75;;;2.45;;
58553;SDS011;48119;53.218;6.576;2022-07-29T15:48:58;6.78;;;2.13;;
58553;SDS011;48119;53.218;6.576;2022-07-29T15:51:28;6.45;;;2.00;;
58553;SDS011;48119;53.218;6.576;2022-07-29T15:53:54;12.07;;;2.67;;
58553;SDS011;48119;53.218;6.576;2022-07-29T15:56:20;5.65;;;1.88;;
58553;SDS011;48119;53.218;6.576;2022-07-29T15:58:54;5.15;;;2.22;;
58553;SDS011;48119;53.218;6.576;2022-07-29T16:01:19;5.68;;;1.60;;
58553;SDS011;48119;53.218;6.576;2022-07-29T16:03:48;6.60;;;2.75;;
58553;SDS011;48119;53.218;6.576;2022-07-29T16:06:14;5.63;;;2.50;;
58553;SDS011;48119;53.218;6.576;2022-07-29T16:08:42;6.20;;;2.13;;
58553;SDS011;48119;53.218;6.576;2022-07-29T16:11:07;3.53;;;1.92;;
58553;SDS011;48119;53.218;6.576;2022-07-29T16:13:37;6.80;;;2.40;;
58553;SDS011;48119;53.218;6.576;2022-07-29T16:16:02;4.85;;;2.30;;